WetterOnline ( https://www.wetteronline.de )

Wetter aktuell Großer Feldberg

Aktuelles Wetter: Kleiner Feldberg (826m)

6-stündlich | Neueste Meldungen
Ortszeit Temperatur Wetter
So, 23.06. 2:00 10.8° C bewölkt
Sa, 22.06. 20:00 11.9° C leichter Regen
Sa, 22.06. 14:00 14.2° C bedeckt
Sa, 22.06. 8:00 10.4° C bedeckt
Sa, 22.06. 2:00 10.1° C Nebel
Fr, 21.06. 20:00 15.4° C Nebel
Fr, 21.06. 14:00 16.4° C Nebel
Fr, 21.06. 8:00 16.9° C wolkig
Ortszeit Temperatur Wetter
So, 23.06. 3:00 10.5° C leicht bewölkt
So, 23.06. 2:50 10.5° C Dunst
So, 23.06. 2:40 10.6° C Dunst
So, 23.06. 2:30 10.6° C fast wolkenlos
So, 23.06. 2:20 10.6° C fast wolkenlos
So, 23.06. 2:10 10.7° C leicht bewölkt
So, 23.06. 2:00 10.8° C bewölkt
So, 23.06. 1:30 11.0° C bedeckt
So, 23.06. 1:00 11.0° C bedeckt
So, 23.06. 0:30 11.0° C bedeckt
So, 23.06. 0:00 11.0° C bedeckt
Ortszeit Relative Feuchte Sichtweite
So, 23.06. 2:00 97% 12 km
Sa, 22.06. 20:00 98% 3.8 km
Sa, 22.06. 14:00 85% 35 km
Sa, 22.06. 8:00 97% 6 km
Sa, 22.06. 2:00 100% 100 m
Fr, 21.06. 20:00 97% 11 km
Fr, 21.06. 14:00 99% 1.0 km
Fr, 21.06. 8:00 90% 25 km
Ortszeit Relative Feuchte Sichtweite
So, 23.06. 3:00 98% 5.0 km
So, 23.06. 2:50 98% -
So, 23.06. 2:40 98% -
So, 23.06. 2:30 98% 8 km
So, 23.06. 2:20 98% -
So, 23.06. 2:10 98% -
So, 23.06. 2:00 97% 12 km
So, 23.06. 1:30 96% 14 km
So, 23.06. 1:00 96% 17 km
So, 23.06. 0:30 95% 18 km
So, 23.06. 0:00 95% 21 km
Ortszeit Niederschlagsmenge Niederschlagsart
So, 23.06. 2:00 0.1 l/m2 in 6 Std. Regen
Sa, 22.06. 20:00 2 l/m2 in 12 Std. Regen
Sa, 22.06. 14:00 0.1 l/m2 in 6 Std. Regen
Sa, 22.06. 8:00 0.4 l/m2 in 12 Std. Regen
Sa, 22.06. 2:00 0.4 l/m2 in 6 Std. Regen
Fr, 21.06. 20:00 3 l/m2 in 12 Std. Regen
Fr, 21.06. 14:00 2 l/m2 in 6 Std. Regen
Fr, 21.06. 8:00 1 l/m2 in 12 Std. Regen
Ortszeit Niederschlagsmenge Niederschlagsart
So, 23.06. 3:00 0.0 l/m2 in 1 Std. -
So, 23.06. 2:50 keine Meldung -
So, 23.06. 2:40 keine Meldung -
So, 23.06. 2:30 0.0 l/m2 in 30 Min -
So, 23.06. 2:20 keine Meldung -
So, 23.06. 2:10 keine Meldung -
So, 23.06. 2:00 0.0 l/m2 in 1 Std. Regen
So, 23.06. 1:30 0.0 l/m2 in 30 Min -
So, 23.06. 1:00 0.0 l/m2 in 1 Std. -
So, 23.06. 0:30 0.0 l/m2 in 30 Min -
So, 23.06. 0:00 0.0 l/m2 in 1 Std. -
Ortszeit Stärke Spitze Richtung
km/h Bft. km/h Grad Sektor
So, 23.06. 2:00 13 3 22 350° N
Sa, 22.06. 20:00 7 2 25 300° NW
Sa, 22.06. 14:00 11 2 29 230° SW
Sa, 22.06. 8:00 11 2 36 240° SW
Sa, 22.06. 2:00 18 3 40 300° NW
Fr, 21.06. 20:00 13 3 37 230° SW
Fr, 21.06. 14:00 13 3 31 210° SW
Fr, 21.06. 8:00 7 2 25 280° W
Ortszeit Stärke Spitze Richtung
km/h Bft. km/h Grad Sektor
So, 23.06. 3:00 13 3 20 350° N
So, 23.06. 2:50 13 3 - 350° N
So, 23.06. 2:40 13 3 - 350° N
So, 23.06. 2:30 11 2 22 360° N
So, 23.06. 2:20 11 2 - 360° N
So, 23.06. 2:10 11 2 - 350° N
So, 23.06. 2:00 13 3 22 350° N
So, 23.06. 1:30 13 3 20 350° N
So, 23.06. 1:00 9 2 20 340° N
So, 23.06. 0:30 9 2 20 350° N
So, 23.06. 0:00 7 2 22 330° NW
Ortszeit Untergrenze Bedeckung Gattung
total tief tief mittel hoch
So, 23.06. 2:00 2400 m 7/8 7/8 - - -
Sa, 22.06. 20:00 30 m 7/8 7/8 - - -
Sa, 22.06. 14:00 180 m 8/8 8/8 - - -
Sa, 22.06. 8:00 600 m 8/8 8/8 - - -
Sa, 22.06. 2:00 <30 m 8/8 0/8 - - -
Fr, 21.06. 20:00 30 m 8/8 8/8 - - -
Fr, 21.06. 14:00 <30 m 8/8 0/8 - - -
Fr, 21.06. 8:00 2700 m 8/8 3/8 - - -
Ortszeit Bedeckungsgrad in Achtel und Wolkenuntergrenze
So, 23.06. 3:00 4(720m)
So, 23.06. 2:50 4(720m)
So, 23.06. 2:40 3
So, 23.06. 2:30 1(2400m)
So, 23.06. 2:20 1(2400m)
So, 23.06. 2:10 2
So, 23.06. 2:00 7(2400m)
So, 23.06. 1:30 3(1020m) 3(1230m) 8(2100m)
So, 23.06. 1:00 8(960m) 8(2100m)
So, 23.06. 0:30 7(870m) 7(1800m) 8(2100m)
So, 23.06. 0:00 8(810m)
Ortszeit Stationsdruck (hPa) Tendenz (hPa in 3 Std.)
So, 23.06. 2:00 922 + 0,7
Sa, 22.06. 20:00 921 + 0,8
Sa, 22.06. 14:00 920 0,0
Sa, 22.06. 8:00 920 + 0,5
Sa, 22.06. 2:00 919 + 0,6
Fr, 21.06. 20:00 918 - 0,8
Fr, 21.06. 14:00 920 - 0,8
Fr, 21.06. 8:00 921 - 0,1
Ortszeit Stationsdruck (hPa) Tendenz (hPa in 3 Std.)
So, 23.06. 3:00 922 + 0,2
So, 23.06. 2:50 922 keine Meldung
So, 23.06. 2:40 923 keine Meldung
So, 23.06. 2:30 922 + 0,3
So, 23.06. 2:20 922 keine Meldung
So, 23.06. 2:10 922 keine Meldung
So, 23.06. 2:00 922 + 0,7
So, 23.06. 1:30 922 + 0,8
So, 23.06. 1:00 923 + 1,5
So, 23.06. 0:30 922 + 1,6
So, 23.06. 0:00 922 + 1,6
Ortszeit Schneehöhe (cm)
So, 23.06. 2:00 0
Sa, 22.06. 20:00 0
Sa, 22.06. 14:00 0
Sa, 22.06. 8:00 0
Sa, 22.06. 2:00 0
Fr, 21.06. 20:00 0
Fr, 21.06. 14:00 0
Fr, 21.06. 8:00 0
Ortszeit Schneehöhe (cm)
So, 23.06. 3:00 0
So, 23.06. 2:50 0
So, 23.06. 2:40 -
So, 23.06. 2:30 0
So, 23.06. 2:20 0
So, 23.06. 2:10 -
So, 23.06. 2:00 0
So, 23.06. 1:30 0
So, 23.06. 1:00 0
So, 23.06. 0:30 0
So, 23.06. 0:00 0
Link zu dieser Seite / Seite empfehlen

Das Wetter in ...